Deva — A8OK3 — position and weather

sailwx.info

Track history (hours):
 
Tides and Currents Weather Stations Pressure Air Temp Water Temp Dewpoint Dewpoint Depression Visibility Wind Speed Wind Dir Waves Ship Positions

Deva

Last reported at 2014-Sep-30 17:27 UTC. Time now 2014-Oct-01 14:19 UTC.
Position N 50°26' W 000°20'.

Length 259 m; draft 12.4 m.

Type: Ship (hazmat cat A). MMSI: 636013644.

Date/timePositionNaut miles runAvg speedWind from/ knotsBaromVisibWave heightAir tempDewpointWater temp
2014-Sep-30 17:27N 50°26' W 000°20'3217.1
2014-Sep-30 15:33N 50°35' E 000°29'1717.2
2014-Sep-30 14:33N 50°45' E 000°51'3316.3
2014-Sep-30 12:33N 51°06' E 001°31'1717.1
2014-Sep-30 11:34N 51°17' E 001°51'1414.3
2014-Sep-30 10:33N 51°21' E 002°13'1616.3
2014-Sep-30 09:34N 51°23' E 002°39'1514.7
2014-Sep-30 08:33N 51°25' E 003°02'1918.6
2014-Sep-30 07:34N 51°26' E 003°32'1211.5
2014-Sep-30 06:34N 51°21' E 003°49'9 9.1
2014-Sep-30 05:34N 51°23' E 004°03'8 8.2
2014-Sep-30 04:33N 51°21' E 004°16'3 3.2
2014-Sep-30 03:33N 51°18' E 004°15'0 0.0
2014-Sep-30 02:29N 51°18' E 004°15'0 0.0
2014-Sep-30 01:32N 51°18' E 004°15'0 0.0
2014-Sep-30 00:32N 51°18' E 004°15'0 0.0
2014-Sep-29 23:29N 51°18' E 004°15'0 0.0
2014-Sep-29 22:32N 51°18' E 004°15'0 0.0
2014-Sep-29 21:32N 51°18' E 004°15'0 0.0
2014-Sep-29 20:23N 51°18' E 004°15'0 0.0
2014-Sep-29 19:31N 51°18' E 004°15'0 0.0
2014-Sep-29 18:31N 51°18' E 004°15'0 0.0
2014-Sep-29 17:31N 51°18' E 004°15'0 0.0
2014-Sep-29 16:31N 51°18' E 004°15'0 0.0
2014-Sep-29 15:28N 51°18' E 004°15'0 0.0
2014-Sep-29 14:31N 51°18' E 004°15'0 0.0
2014-Sep-29 13:28N 51°18' E 004°15'0 0.0
2014-Sep-29 12:31N 51°18' E 004°15'0 0.0
2014-Sep-29 11:25N 51°18' E 004°15'0 0.0
2014-Sep-29 10:31N 51°18' E 004°15'0 0.0
2014-Sep-29 09:31N 51°18' E 004°15'0 0.0
2014-Sep-29 08:28N 51°18' E 004°15'0 0.0
2014-Sep-29 07:28N 51°18' E 004°15'0 0.0
2014-Sep-29 06:28N 51°18' E 004°15'0 0.0
2014-Sep-29 05:28N 51°18' E 004°15'0 0.0
2014-Sep-29 04:31N 51°18' E 004°15'1 0.7
2014-Sep-29 03:34N 51°18' E 004°16'7 6.6
2014-Sep-29 02:33N 51°22' E 004°08'7 7.2
2014-Sep-29 01:33N 51°23' E 003°57'9 9.1
2014-Sep-29 00:33N 51°25' E 003°42'1110.6
2014-Sep-28 23:33N 51°25' E 003°25'1413.2
2014-Sep-28 22:32N 51°24' E 003°04'1313.8
2014-Sep-28 21:33N 51°37' E 003°10'1212.3
2014-Sep-28 20:32N 51°49' E 003°16'1612.6
2014-Sep-28 19:17N 52°05' E 003°21'912.1
2014-Sep-28 18:32N 52°13' E 003°23'1211.8
2014-Sep-28 17:33N 52°25' E 003°27'1111.4
2014-Sep-28 16:33N 52°36' E 003°30'1211.7
2014-Sep-28 15:30N 52°46' E 003°42'1213.0
2014-Sep-28 14:33N 52°55' E 003°55'1513.7
2014-Sep-28 13:29N 53°05' E 004°13'1313.6
2014-Sep-28 12:33N 53°15' E 004°26'1313.4
2014-Sep-28 11:34N 53°27' E 004°36'1312.6
2014-Sep-28 10:34N 53°33' E 004°55'1211.9
2014-Sep-28 09:34N 53°37' E 005°14'1211.5
2014-Sep-28 08:33N 53°40' E 005°32'1211.6
2014-Sep-28 07:34N 53°44' E 005°51'1312.4
2014-Sep-28 06:33N 53°48' E 006°11'1313.5
2014-Sep-28 05:34N 53°52' E 006°33'1413.7
2014-Sep-28 04:34N 53°55' E 006°55'1413.3
2014-Sep-28 03:32N 53°58' E 007°18'1212.7
2014-Sep-28 02:34N 53°59' E 007°39'1211.7
2014-Sep-28 01:31N 53°52' E 007°56'1515.8
2014-Sep-28 00:33N 53°43' E 008°17'1110.8
2014-Sep-27 23:32N 53°36' E 008°31'0 0.0
2014-Sep-27 22:32N 53°36' E 008°31'0 0.0
2014-Sep-27 21:32N 53°36' E 008°31'0 0.0
2014-Sep-27 20:32N 53°36' E 008°31'0 0.0
2014-Sep-27 19:32N 53°36' E 008°31'0 0.0
2014-Sep-27 18:32N 53°36' E 008°31'0 0.0
2014-Sep-27 17:32N 53°36' E 008°31'0 0.0
2014-Sep-27 16:32N 53°36' E 008°31'0 0.0
2014-Sep-27 15:32N 53°36' E 008°31'0 0.0
2014-Sep-27 14:32N 53°36' E 008°31'0 0.0
2014-Sep-27 13:32N 53°36' E 008°31'0 0.0
2014-Sep-27 12:32N 53°36' E 008°31'0 0.0
2014-Sep-27 11:32N 53°36' E 008°31'0 0.0
2014-Sep-27 10:32N 53°36' E 008°31'0 0.0
2014-Sep-27 09:32N 53°36' E 008°31'0 0.0
2014-Sep-27 08:32N 53°36' E 008°31'0 0.0
2014-Sep-27 07:32N 53°36' E 008°31'0 0.0
2014-Sep-27 06:32N 53°36' E 008°31'0 0.0
2014-Sep-27 05:32N 53°36' E 008°31'0 0.0
2014-Sep-27 04:32N 53°36' E 008°31'0 0.0
2014-Sep-27 03:32N 53°36' E 008°31'0 0.0
2014-Sep-27 02:32N 53°36' E 008°31'0 0.0
2014-Sep-27 01:32N 53°36' E 008°31'0 0.0
2014-Sep-27 00:32N 53°36' E 008°31'0 0.0
2014-Sep-26 23:33N 53°36' E 008°31'8 8.2
2014-Sep-26 22:33N 53°41' E 008°21'1615.6
2014-Sep-26 21:33N 53°51' E 007°60'7 6.6
2014-Sep-26 20:28N 53°55' E 007°49'0 0.0
2014-Sep-26 19:19N 53°55' E 007°49'0 0.0
2014-Sep-26 18:25N 53°55' E 007°49'0 0.0
2014-Sep-26 17:31N 53°55' E 007°49'0 0.0
2014-Sep-26 16:28N 53°55' E 007°49'0 0.1
2014-Sep-26 15:31N 53°55' E 007°49'0 0.0
2014-Sep-26 14:31N 53°55' E 007°49'0 0.0
2014-Sep-26 13:31N 53°55' E 007°49'0 0.0
2014-Sep-26 12:31N 53°55' E 007°49'0 0.0
2014-Sep-26 11:31N 53°55' E 007°49'0 0.0
2014-Sep-26 10:31N 53°55' E 007°49'0 0.0
2014-Sep-26 09:31N 53°55' E 007°49'0 0.0
2014-Sep-26 07:28N 53°55' E 007°49'0 0.0
2014-Sep-26 01:28N 53°55' E 007°49'4811.9
2014-Sep-25 21:27N 53°46' E 006°30'1314.0
2014-Sep-25 20:32N 53°42' E 006°09'1414.0
2014-Sep-25 19:33N 53°38' E 005°47'1414.0
2014-Sep-25 18:34N 53°33' E 005°25'1414.2
2014-Sep-25 17:33N 53°29' E 005°03'1413.9
2014-Sep-25 16:33N 53°23' E 004°41'1713.4
2014-Sep-25 15:16N 53°08' E 004°29'1213.0
2014-Sep-25 14:22N 52°57' E 004°20'1212.7
2014-Sep-25 13:25N 52°47' E 004°10'1212.4
2014-Sep-25 12:26N 52°37' E 003°59'1111.9
2014-Sep-25 11:33N 52°27' E 003°54'1211.7
2014-Sep-25 10:34N 52°15' E 003°53'1111.4
2014-Sep-25 09:34N 52°04' E 003°53'1111.0
2014-Sep-25 08:34N 51°58' E 004°09'9 9.1
2014-Sep-25 07:34N 51°54' E 004°22'3 2.5
2014-Sep-25 06:31N 51°54' E 004°26'0 0.0
2014-Sep-25 05:31N 51°54' E 004°26'0 0.0
2014-Sep-25 04:31N 51°54' E 004°26'0 0.0
2014-Sep-25 03:31N 51°54' E 004°26'0 0.0
2014-Sep-25 02:31N 51°54' E 004°26'0 0.0
2014-Sep-25 01:31N 51°54' E 004°26'0 0.0
2014-Sep-25 00:28N 51°54' E 004°26'0 0.0
2014-Sep-24 23:31N 51°54' E 004°26'0 0.0
2014-Sep-24 22:31N 51°54' E 004°26'0 0.0
2014-Sep-24 21:31N 51°54' E 004°26'0 0.0
2014-Sep-24 20:31N 51°54' E 004°26'0 0.0
2014-Sep-24 19:31N 51°54' E 004°26'0 0.0
2014-Sep-24 18:31N 51°54' E 004°26'0 0.0
2014-Sep-24 17:31N 51°54' E 004°26'0 0.0
2014-Sep-24 16:31N 51°54' E 004°26'0 0.0
2014-Sep-24 15:31N 51°54' E 004°26'0 0.0
2014-Sep-24 14:31N 51°54' E 004°26'0 0.0
2014-Sep-24 13:31N 51°54' E 004°26'0 0.0
2014-Sep-24 12:31N 51°54' E 004°26'1 0.9
2014-Sep-24 11:33N 51°54' E 004°25'7 7.3
2014-Sep-24 10:34N 51°56' E 004°13'8 7.9
2014-Sep-24 09:33N 51°60' E 004°02'8 8.3
2014-Sep-24 08:34N 52°00' E 003°49'10 9.5
2014-Sep-24 07:33N 51°56' E 003°34'1 0.8
2014-Sep-24 06:16N 51°55' E 003°34'0 0.0
2014-Sep-24 05:22N 51°55' E 003°34'0 0.0
2014-Sep-24 04:31N 51°56' E 003°34'0 0.0
2014-Sep-24 03:19N 51°56' E 003°34'0 0.0
2014-Sep-24 02:31N 51°56' E 003°34'0 0.0
2014-Sep-24 01:19N 51°56' E 003°34'0 0.0
2014-Sep-24 00:31N 51°56' E 003°34'0 0.0
2014-Sep-23 23:28N 51°55' E 003°34'0 0.1
2014-Sep-23 20:13N 51°55' E 003°34'0 0.0
2014-Sep-23 19:22N 51°55' E 003°34'0 0.2
2014-Sep-23 18:13N 51°55' E 003°34'0 0.0
2014-Sep-23 17:24N 51°55' E 003°34'0 0.0
2014-Sep-23 15:30N 51°56' E 003°34'0 0.0
2014-Sep-23 14:30N 51°56' E 003°34'0 0.0
2014-Sep-23 13:06N 51°56' E 003°34'0 0.0
2014-Sep-23 12:33N 51°55' E 003°34'0 0.0
2014-Sep-23 11:30N 51°55' E 003°34'1 0.7
2014-Sep-23 10:33N 51°55' E 003°33'2911.7
2014-Sep-23 08:04N 51°52' E 002°46'911.4
2014-Sep-23 07:17N 51°52' E 002°32'911.8
2014-Sep-23 06:32N 51°52' E 002°17'1211.9
2014-Sep-23 05:33N 51°50' E 001°59'1211.9
2014-Sep-23 04:33N 51°51' E 001°40'1212.5
2014-Sep-23 03:33N 51°56' E 001°21'3 3.0
2014-Sep-23 02:31N 51°58' E 001°18'0 0.0
2014-Sep-23 01:31N 51°58' E 001°18'0 0.0
2014-Sep-23 00:31N 51°58' E 001°18'0 0.0
2014-Sep-22 23:31N 51°58' E 001°18'0 0.0
2014-Sep-22 22:31N 51°58' E 001°18'0 0.0
2014-Sep-22 21:31N 51°58' E 001°18'0 0.0
2014-Sep-22 20:31N 51°58' E 001°18'0 0.0
2014-Sep-22 19:31N 51°58' E 001°18'0 0.0
2014-Sep-22 18:31N 51°58' E 001°18'0 0.0
2014-Sep-22 17:31N 51°58' E 001°18'0 0.0
2014-Sep-22 16:31N 51°58' E 001°18'0 0.0
2014-Sep-22 15:31N 51°58' E 001°18'0 0.0
2014-Sep-22 14:31N 51°58' E 001°18'0 0.0
2014-Sep-22 13:31N 51°58' E 001°18'0 0.0
2014-Sep-22 12:31N 51°58' E 001°18'0 0.0
2014-Sep-22 11:31N 51°58' E 001°18'0 0.0
2014-Sep-22 10:31N 51°58' E 001°18'0 0.0
2014-Sep-22 09:31N 51°58' E 001°18'0 0.0
2014-Sep-22 08:31N 51°58' E 001°18'0 0.0
2014-Sep-22 07:31N 51°58' E 001°18'0 0.0
2014-Sep-22 06:31N 51°58' E 001°18'0 0.2
2014-Sep-22 05:33N 51°57' E 001°18'8 8.0
2014-Sep-22 04:33N 51°56' E 001°31'1111.4
2014-Sep-22 03:33N 51°51' E 001°47'1515.2
2014-Sep-22 02:33N 51°36' E 001°50'1515.0
2014-Sep-22 01:33N 51°22' E 002°01'1717.4
2014-Sep-22 00:33N 51°09' E 001°43'1817.8
2014-Sep-21 23:33N 50°55' E 001°26'1716.8
2014-Sep-21 22:33N 50°40' E 001°15'1717.1
2014-Sep-21 21:34N 50°30' E 000°53'1717.4
2014-Sep-21 20:34N 50°25' E 000°27'  
Track history (hours):
 
Tides and Currents Weather Stations Pressure Air Temp Water Temp Dewpoint Dewpoint Depression Visibility Wind Speed Wind Dir Waves Ship Positions

Deva

Last reported at 2014-Sep-30 17:27 UTC. Time now 2014-Oct-01 14:19 UTC.
Position N 50°26' W 000°20'.

Length 259 m; draft 12.4 m.

Type: Ship (hazmat cat A). MMSI: 636013644.

Date/timePositionNaut miles runAvg speedWind from/ knotsBaromVisibWave heightAir tempDewpointWater temp
2014-Sep-30 17:27N 50°26' W 000°20'3217.1
2014-Sep-30 15:33N 50°35' E 000°29'1717.2
2014-Sep-30 14:33N 50°45' E 000°51'3316.3
2014-Sep-30 12:33N 51°06' E 001°31'1717.1
2014-Sep-30 11:34N 51°17' E 001°51'1414.3
2014-Sep-30 10:33N 51°21' E 002°13'1616.3
2014-Sep-30 09:34N 51°23' E 002°39'1514.7
2014-Sep-30 08:33N 51°25' E 003°02'1918.6
2014-Sep-30 07:34N 51°26' E 003°32'1211.5
2014-Sep-30 06:34N 51°21' E 003°49'9 9.1
2014-Sep-30 05:34N 51°23' E 004°03'8 8.2
2014-Sep-30 04:33N 51°21' E 004°16'3 3.2
2014-Sep-30 03:33N 51°18' E 004°15'0 0.0
2014-Sep-30 02:29N 51°18' E 004°15'0 0.0
2014-Sep-30 01:32N 51°18' E 004°15'0 0.0
2014-Sep-30 00:32N 51°18' E 004°15'0 0.0
2014-Sep-29 23:29N 51°18' E 004°15'0 0.0
2014-Sep-29 22:32N 51°18' E 004°15'0 0.0
2014-Sep-29 21:32N 51°18' E 004°15'0 0.0
2014-Sep-29 20:23N 51°18' E 004°15'0 0.0
2014-Sep-29 19:31N 51°18' E 004°15'0 0.0
2014-Sep-29 18:31N 51°18' E 004°15'0 0.0
2014-Sep-29 17:31N 51°18' E 004°15'0 0.0
2014-Sep-29 16:31N 51°18' E 004°15'0 0.0
2014-Sep-29 15:28N 51°18' E 004°15'0 0.0
2014-Sep-29 14:31N 51°18' E 004°15'0 0.0
2014-Sep-29 13:28N 51°18' E 004°15'0 0.0
2014-Sep-29 12:31N 51°18' E 004°15'0 0.0
2014-Sep-29 11:25N 51°18' E 004°15'0 0.0
2014-Sep-29 10:31N 51°18' E 004°15'0 0.0
2014-Sep-29 09:31N 51°18' E 004°15'0 0.0
2014-Sep-29 08:28N 51°18' E 004°15'0 0.0
2014-Sep-29 07:28N 51°18' E 004°15'0 0.0
2014-Sep-29 06:28N 51°18' E 004°15'0 0.0
2014-Sep-29 05:28N 51°18' E 004°15'0 0.0
2014-Sep-29 04:31N 51°18' E 004°15'1 0.7
2014-Sep-29 03:34N 51°18' E 004°16'7 6.6
2014-Sep-29 02:33N 51°22' E 004°08'7 7.2
2014-Sep-29 01:33N 51°23' E 003°57'9 9.1
2014-Sep-29 00:33N 51°25' E 003°42'1110.6
2014-Sep-28 23:33N 51°25' E 003°25'1413.2
2014-Sep-28 22:32N 51°24' E 003°04'1313.8
2014-Sep-28 21:33N 51°37' E 003°10'1212.3
2014-Sep-28 20:32N 51°49' E 003°16'1612.6
2014-Sep-28 19:17N 52°05' E 003°21'912.1
2014-Sep-28 18:32N 52°13' E 003°23'1211.8
2014-Sep-28 17:33N 52°25' E 003°27'1111.4
2014-Sep-28 16:33N 52°36' E 003°30'1211.7
2014-Sep-28 15:30N 52°46' E 003°42'1213.0
2014-Sep-28 14:33N 52°55' E 003°55'1513.7
2014-Sep-28 13:29N 53°05' E 004°13'1313.6
2014-Sep-28 12:33N 53°15' E 004°26'1313.4
2014-Sep-28 11:34N 53°27' E 004°36'1312.6
2014-Sep-28 10:34N 53°33' E 004°55'1211.9
2014-Sep-28 09:34N 53°37' E 005°14'1211.5
2014-Sep-28 08:33N 53°40' E 005°32'1211.6
2014-Sep-28 07:34N 53°44' E 005°51'1312.4
2014-Sep-28 06:33N 53°48' E 006°11'1313.5
2014-Sep-28 05:34N 53°52' E 006°33'1413.7
2014-Sep-28 04:34N 53°55' E 006°55'1413.3
2014-Sep-28 03:32N 53°58' E 007°18'1212.7
2014-Sep-28 02:34N 53°59' E 007°39'1211.7
2014-Sep-28 01:31N 53°52' E 007°56'1515.8
2014-Sep-28 00:33N 53°43' E 008°17'1110.8
2014-Sep-27 23:32N 53°36' E 008°31'0 0.0
2014-Sep-27 22:32N 53°36' E 008°31'0 0.0
2014-Sep-27 21:32N 53°36' E 008°31'0 0.0
2014-Sep-27 20:32N 53°36' E 008°31'0 0.0
2014-Sep-27 19:32N 53°36' E 008°31'0 0.0
2014-Sep-27 18:32N 53°36' E 008°31'0 0.0
2014-Sep-27 17:32N 53°36' E 008°31'0 0.0
2014-Sep-27 16:32N 53°36' E 008°31'0 0.0
2014-Sep-27 15:32N 53°36' E 008°31'0 0.0
2014-Sep-27 14:32N 53°36' E 008°31'0 0.0
2014-Sep-27 13:32N 53°36' E 008°31'0 0.0
2014-Sep-27 12:32N 53°36' E 008°31'0 0.0
2014-Sep-27 11:32N 53°36' E 008°31'0 0.0
2014-Sep-27 10:32N 53°36' E 008°31'0 0.0
2014-Sep-27 09:32N 53°36' E 008°31'0 0.0
2014-Sep-27 08:32N 53°36' E 008°31'0 0.0
2014-Sep-27 07:32N 53°36' E 008°31'0 0.0
2014-Sep-27 06:32N 53°36' E 008°31'0 0.0
2014-Sep-27 05:32N 53°36' E 008°31'0 0.0
2014-Sep-27 04:32N 53°36' E 008°31'0 0.0
2014-Sep-27 03:32N 53°36' E 008°31'0 0.0
2014-Sep-27 02:32N 53°36' E 008°31'0 0.0
2014-Sep-27 01:32N 53°36' E 008°31'0 0.0
2014-Sep-27 00:32N 53°36' E 008°31'0 0.0
2014-Sep-26 23:33N 53°36' E 008°31'8 8.2
2014-Sep-26 22:33N 53°41' E 008°21'1615.6
2014-Sep-26 21:33N 53°51' E 007°60'7 6.6
2014-Sep-26 20:28N 53°55' E 007°49'0 0.0
2014-Sep-26 19:19N 53°55' E 007°49'0 0.0
2014-Sep-26 18:25N 53°55' E 007°49'0 0.0
2014-Sep-26 17:31N 53°55' E 007°49'0 0.0
2014-Sep-26 16:28N 53°55' E 007°49'0 0.1
2014-Sep-26 15:31N 53°55' E 007°49'0 0.0
2014-Sep-26 14:31N 53°55' E 007°49'0 0.0
2014-Sep-26 13:31N 53°55' E 007°49'0 0.0
2014-Sep-26 12:31N 53°55' E 007°49'0 0.0
2014-Sep-26 11:31N 53°55' E 007°49'0 0.0
2014-Sep-26 10:31N 53°55' E 007°49'0 0.0
2014-Sep-26 09:31N 53°55' E 007°49'0 0.0
2014-Sep-26 07:28N 53°55' E 007°49'0 0.0
2014-Sep-26 01:28N 53°55' E 007°49'4811.9
2014-Sep-25 21:27N 53°46' E 006°30'1314.0
2014-Sep-25 20:32N 53°42' E 006°09'1414.0
2014-Sep-25 19:33N 53°38' E 005°47'1414.0
2014-Sep-25 18:34N 53°33' E 005°25'1414.2
2014-Sep-25 17:33N 53°29' E 005°03'1413.9
2014-Sep-25 16:33N 53°23' E 004°41'1713.4
2014-Sep-25 15:16N 53°08' E 004°29'1213.0
2014-Sep-25 14:22N 52°57' E 004°20'1212.7
2014-Sep-25 13:25N 52°47' E 004°10'1212.4
2014-Sep-25 12:26N 52°37' E 003°59'1111.9
2014-Sep-25 11:33N 52°27' E 003°54'1211.7
2014-Sep-25 10:34N 52°15' E 003°53'1111.4
2014-Sep-25 09:34N 52°04' E 003°53'1111.0
2014-Sep-25 08:34N 51°58' E 004°09'9 9.1
2014-Sep-25 07:34N 51°54' E 004°22'3 2.5
2014-Sep-25 06:31N 51°54' E 004°26'0 0.0
2014-Sep-25 05:31N 51°54' E 004°26'0 0.0
2014-Sep-25 04:31N 51°54' E 004°26'0 0.0
2014-Sep-25 03:31N 51°54' E 004°26'0 0.0
2014-Sep-25 02:31N 51°54' E 004°26'0 0.0
2014-Sep-25 01:31N 51°54' E 004°26'0 0.0
2014-Sep-25 00:28N 51°54' E 004°26'0 0.0
2014-Sep-24 23:31N 51°54' E 004°26'0 0.0
2014-Sep-24 22:31N 51°54' E 004°26'0 0.0
2014-Sep-24 21:31N 51°54' E 004°26'0 0.0
2014-Sep-24 20:31N 51°54' E 004°26'0 0.0
2014-Sep-24 19:31N 51°54' E 004°26'0 0.0
2014-Sep-24 18:31N 51°54' E 004°26'0 0.0
2014-Sep-24 17:31N 51°54' E 004°26'0 0.0
2014-Sep-24 16:31N 51°54' E 004°26'0 0.0
2014-Sep-24 15:31N 51°54' E 004°26'0 0.0
2014-Sep-24 14:31N 51°54' E 004°26'0 0.0
2014-Sep-24 13:31N 51°54' E 004°26'0 0.0
2014-Sep-24 12:31N 51°54' E 004°26'1 0.9
2014-Sep-24 11:33N 51°54' E 004°25'7 7.3
2014-Sep-24 10:34N 51°56' E 004°13'8 7.9
2014-Sep-24 09:33N 51°60' E 004°02'8 8.3
2014-Sep-24 08:34N 52°00' E 003°49'10 9.5
2014-Sep-24 07:33N 51°56' E 003°34'1 0.8
2014-Sep-24 06:16N 51°55' E 003°34'0 0.0
2014-Sep-24 05:22N 51°55' E 003°34'0 0.0
2014-Sep-24 04:31N 51°56' E 003°34'0 0.0
2014-Sep-24 03:19N 51°56' E 003°34'0 0.0
2014-Sep-24 02:31N 51°56' E 003°34'0 0.0
2014-Sep-24 01:19N 51°56' E 003°34'0 0.0
2014-Sep-24 00:31N 51°56' E 003°34'0 0.0
2014-Sep-23 23:28N 51°55' E 003°34'0 0.1
2014-Sep-23 20:13N 51°55' E 003°34'0 0.0
2014-Sep-23 19:22N 51°55' E 003°34'0 0.2
2014-Sep-23 18:13N 51°55' E 003°34'0 0.0
2014-Sep-23 17:24N 51°55' E 003°34'0 0.0
2014-Sep-23 15:30N 51°56' E 003°34'0 0.0
2014-Sep-23 14:30N 51°56' E 003°34'0 0.0
2014-Sep-23 13:06N 51°56' E 003°34'0 0.0
2014-Sep-23 12:33N 51°55' E 003°34'0 0.0
2014-Sep-23 11:30N 51°55' E 003°34'1 0.7
2014-Sep-23 10:33N 51°55' E 003°33'2911.7
2014-Sep-23 08:04N 51°52' E 002°46'911.4
2014-Sep-23 07:17N 51°52' E 002°32'911.8
2014-Sep-23 06:32N 51°52' E 002°17'1211.9
2014-Sep-23 05:33N 51°50' E 001°59'1211.9
2014-Sep-23 04:33N 51°51' E 001°40'1212.5
2014-Sep-23 03:33N 51°56' E 001°21'3 3.0
2014-Sep-23 02:31N 51°58' E 001°18'0 0.0
2014-Sep-23 01:31N 51°58' E 001°18'0 0.0
2014-Sep-23 00:31N 51°58' E 001°18'0 0.0
2014-Sep-22 23:31N 51°58' E 001°18'0 0.0
2014-Sep-22 22:31N 51°58' E 001°18'0 0.0
2014-Sep-22 21:31N 51°58' E 001°18'0 0.0
2014-Sep-22 20:31N 51°58' E 001°18'0 0.0
2014-Sep-22 19:31N 51°58' E 001°18'0 0.0
2014-Sep-22 18:31N 51°58' E 001°18'0 0.0
2014-Sep-22 17:31N 51°58' E 001°18'0 0.0
2014-Sep-22 16:31N 51°58' E 001°18'0 0.0
2014-Sep-22 15:31N 51°58' E 001°18'0 0.0
2014-Sep-22 14:31N 51°58' E 001°18'0 0.0
2014-Sep-22 13:31N 51°58' E 001°18'0 0.0
2014-Sep-22 12:31N 51°58' E 001°18'0 0.0
2014-Sep-22 11:31N 51°58' E 001°18'0 0.0
2014-Sep-22 10:31N 51°58' E 001°18'0 0.0
2014-Sep-22 09:31N 51°58' E 001°18'0 0.0
2014-Sep-22 08:31N 51°58' E 001°18'0 0.0
2014-Sep-22 07:31N 51°58' E 001°18'0 0.0
2014-Sep-22 06:31N 51°58' E 001°18'0 0.2
2014-Sep-22 05:33N 51°57' E 001°18'8 8.0
2014-Sep-22 04:33N 51°56' E 001°31'1111.4
2014-Sep-22 03:33N 51°51' E 001°47'1515.2
2014-Sep-22 02:33N 51°36' E 001°50'1515.0
2014-Sep-22 01:33N 51°22' E 002°01'1717.4
2014-Sep-22 00:33N 51°09' E 001°43'1817.8
2014-Sep-21 23:33N 50°55' E 001°26'1716.8
2014-Sep-21 22:33N 50°40' E 001°15'1717.1
2014-Sep-21 21:34N 50°30' E 000°53'1717.4
2014-Sep-21 20:34N 50°25' E 000°27'  

Dump ship's entire track history